sensor_id;sensor_type;location;lat;lon;timestamp;P1;durP1;ratioP1;P2;durP2;ratioP2
7332;SDS011;3707;43.618;25.342;2023-07-13T00:00:08;0.70;;;0.70;;
7332;SDS011;3707;43.618;25.342;2023-07-13T00:02:36;0.70;;;0.70;;
7332;SDS011;3707;43.618;25.342;2023-07-13T00:05:03;0.60;;;0.60;;
7332;SDS011;3707;43.618;25.342;2023-07-13T00:07:33;0.70;;;0.70;;
7332;SDS011;3707;43.618;25.342;2023-07-13T00:09:59;0.60;;;0.60;;
7332;SDS011;3707;43.618;25.342;2023-07-13T00:12:28;0.70;;;0.70;;
7332;SDS011;3707;43.618;25.342;2023-07-13T00:14:56;0.75;;;0.75;;
7332;SDS011;3707;43.618;25.342;2023-07-13T00:17:25;0.95;;;0.90;;
7332;SDS011;3707;43.618;25.342;2023-07-13T00:19:52;0.65;;;0.65;;
7332;SDS011;3707;43.618;25.342;2023-07-13T00:22:20;0.75;;;0.75;;
7332;SDS011;3707;43.618;25.342;2023-07-13T00:24:50;0.73;;;0.73;;
7332;SDS011;3707;43.618;25.342;2023-07-13T00:27:17;1.02;;;1.02;;
7332;SDS011;3707;43.618;25.342;2023-07-13T00:29:44;1.17;;;1.17;;
7332;SDS011;3707;43.618;25.342;2023-07-13T00:32:11;0.60;;;0.60;;
7332;SDS011;3707;43.618;25.342;2023-07-13T00:34:38;0.70;;;0.70;;
7332;SDS011;3707;43.618;25.342;2023-07-13T00:37:05;0.85;;;0.85;;
7332;SDS011;3707;43.618;25.342;2023-07-13T00:39:33;0.70;;;0.70;;
7332;SDS011;3707;43.618;25.342;2023-07-13T00:42:02;0.80;;;0.80;;
7332;SDS011;3707;43.618;25.342;2023-07-13T00:44:30;0.70;;;0.70;;
7332;SDS011;3707;43.618;25.342;2023-07-13T00:46:57;0.60;;;0.60;;
7332;SDS011;3707;43.618;25.342;2023-07-13T00:49:25;0.75;;;0.75;;
7332;SDS011;3707;43.618;25.342;2023-07-13T00:51:55;2.63;;;0.95;;
7332;SDS011;3707;43.618;25.342;2023-07-13T00:54:26;0.65;;;0.65;;
7332;SDS011;3707;43.618;25.342;2023-07-13T00:56:58;0.73;;;0.73;;
7332;SDS011;3707;43.618;25.342;2023-07-13T00:59:28;0.60;;;0.60;;
7332;SDS011;3707;43.618;25.342;2023-07-13T01:01:56;0.82;;;0.82;;
7332;SDS011;3707;43.618;25.342;2023-07-13T01:04:23;0.70;;;0.70;;
7332;SDS011;3707;43.618;25.342;2023-07-13T01:06:50;0.70;;;0.70;;
7332;SDS011;3707;43.618;25.342;2023-07-13T01:09:18;0.70;;;0.70;;
7332;SDS011;3707;43.618;25.342;2023-07-13T01:11:46;0.80;;;0.80;;
7332;SDS011;3707;43.618;25.342;2023-07-13T01:14:14;0.80;;;0.80;;
7332;SDS011;3707;43.618;25.342;2023-07-13T01:16:44;0.60;;;0.60;;
7332;SDS011;3707;43.618;25.342;2023-07-13T01:19:15;0.70;;;0.70;;
7332;SDS011;3707;43.618;25.342;2023-07-13T01:21:56;0.77;;;0.77;;
7332;SDS011;3707;43.618;25.342;2023-07-13T01:24:23;0.60;;;0.60;;
7332;SDS011;3707;43.618;25.342;2023-07-13T01:26:50;0.70;;;0.70;;
7332;SDS011;3707;43.618;25.342;2023-07-13T01:29:17;1.55;;;0.98;;
7332;SDS011;3707;43.618;25.342;2023-07-13T01:31:43;0.68;;;0.68;;
7332;SDS011;3707;43.618;25.342;2023-07-13T01:34:10;0.70;;;0.70;;
7332;SDS011;3707;43.618;25.342;2023-07-13T01:36:37;0.80;;;0.80;;
7332;SDS011;3707;43.618;25.342;2023-07-13T01:39:05;1.25;;;1.25;;
7332;SDS011;3707;43.618;25.342;2023-07-13T01:41:32;0.73;;;0.73;;
7332;SDS011;3707;43.618;25.342;2023-07-13T01:43:59;0.88;;;0.88;;
7332;SDS011;3707;43.618;25.342;2023-07-13T01:46:26;0.70;;;0.70;;
7332;SDS011;3707;43.618;25.342;2023-07-13T01:48:52;0.80;;;0.80;;
7332;SDS011;3707;43.618;25.342;2023-07-13T01:51:19;0.70;;;0.70;;
7332;SDS011;3707;43.618;25.342;2023-07-13T01:53:46;0.75;;;0.75;;
7332;SDS011;3707;43.618;25.342;2023-07-13T01:56:14;0.68;;;0.68;;
7332;SDS011;3707;43.618;25.342;2023-07-13T01:58:41;0.80;;;0.80;;
7332;SDS011;3707;43.618;25.342;2023-07-13T02:01:08;0.77;;;0.77;;
7332;SDS011;3707;43.618;25.342;2023-07-13T02:03:35;0.85;;;0.85;;
7332;SDS011;3707;43.618;25.342;2023-07-13T02:06:01;0.88;;;0.88;;
7332;SDS011;3707;43.618;25.342;2023-07-13T02:08:28;0.70;;;0.70;;
7332;SDS011;3707;43.618;25.342;2023-07-13T02:10:55;0.80;;;0.80;;
7332;SDS011;3707;43.618;25.342;2023-07-13T02:13:23;0.70;;;0.70;;
7332;SDS011;3707;43.618;25.342;2023-07-13T02:15:50;0.70;;;0.70;;
7332;SDS011;3707;43.618;25.342;2023-07-13T02:18:17;0.80;;;0.80;;
7332;SDS011;3707;43.618;25.342;2023-07-13T02:20:44;0.60;;;0.60;;
7332;SDS011;3707;43.618;25.342;2023-07-13T02:23:11;0.98;;;0.98;;
7332;SDS011;3707;43.618;25.342;2023-07-13T02:25:37;0.70;;;0.70;;
7332;SDS011;3707;43.618;25.342;2023-07-13T02:28:04;1.65;;;1.55;;
7332;SDS011;3707;43.618;25.342;2023-07-13T02:30:33;0.70;;;0.70;;
7332;SDS011;3707;43.618;25.342;2023-07-13T02:33:00;0.70;;;0.70;;
7332;SDS011;3707;43.618;25.342;2023-07-13T02:35:27;0.70;;;0.70;;
7332;SDS011;3707;43.618;25.342;2023-07-13T02:37:54;0.93;;;0.73;;
7332;SDS011;3707;43.618;25.342;2023-07-13T02:40:21;0.70;;;0.70;;
7332;SDS011;3707;43.618;25.342;2023-07-13T02:42:48;1.70;;;1.55;;
7332;SDS011;3707;43.618;25.342;2023-07-13T02:45:15;0.70;;;0.70;;
7332;SDS011;3707;43.618;25.342;2023-07-13T02:47:43;0.70;;;0.70;;
7332;SDS011;3707;43.618;25.342;2023-07-13T02:50:10;0.70;;;0.70;;
7332;SDS011;3707;43.618;25.342;2023-07-13T02:52:36;1.23;;;1.23;;
7332;SDS011;3707;43.618;25.342;2023-07-13T02:55:03;0.60;;;0.60;;
7332;SDS011;3707;43.618;25.342;2023-07-13T02:57:30;0.80;;;0.80;;
7332;SDS011;3707;43.618;25.342;2023-07-13T02:59:58;0.70;;;0.70;;
7332;SDS011;3707;43.618;25.342;2023-07-13T03:02:25;0.65;;;0.65;;
7332;SDS011;3707;43.618;25.342;2023-07-13T03:04:54;0.70;;;0.70;;
7332;SDS011;3707;43.618;25.342;2023-07-13T03:07:21;0.73;;;0.73;;
7332;SDS011;3707;43.618;25.342;2023-07-13T03:09:48;0.70;;;0.70;;
7332;SDS011;3707;43.618;25.342;2023-07-13T03:12:14;0.95;;;0.95;;
7332;SDS011;3707;43.618;25.342;2023-07-13T03:14:41;0.80;;;0.80;;
7332;SDS011;3707;43.618;25.342;2023-07-13T03:17:08;0.68;;;0.68;;
7332;SDS011;3707;43.618;25.342;2023-07-13T03:19:35;0.70;;;0.70;;
7332;SDS011;3707;43.618;25.342;2023-07-13T03:22:03;0.80;;;0.80;;
7332;SDS011;3707;43.618;25.342;2023-07-13T03:24:32;0.90;;;0.90;;
7332;SDS011;3707;43.618;25.342;2023-07-13T03:27:00;0.60;;;0.60;;
7332;SDS011;3707;43.618;25.342;2023-07-13T03:29:27;0.70;;;0.70;;
7332;SDS011;3707;43.618;25.342;2023-07-13T03:31:54;0.90;;;0.90;;
7332;SDS011;3707;43.618;25.342;2023-07-13T03:34:21;0.70;;;0.70;;
7332;SDS011;3707;43.618;25.342;2023-07-13T03:36:47;0.70;;;0.70;;
7332;SDS011;3707;43.618;25.342;2023-07-13T03:39:16;0.70;;;0.70;;
7332;SDS011;3707;43.618;25.342;2023-07-13T03:41:42;0.90;;;0.90;;
7332;SDS011;3707;43.618;25.342;2023-07-13T03:44:09;1.00;;;1.00;;
7332;SDS011;3707;43.618;25.342;2023-07-13T03:46:37;0.60;;;0.60;;
7332;SDS011;3707;43.618;25.342;2023-07-13T03:49:04;0.60;;;0.60;;
7332;SDS011;3707;43.618;25.342;2023-07-13T03:51:31;0.68;;;0.68;;
7332;SDS011;3707;43.618;25.342;2023-07-13T03:53:58;0.75;;;0.75;;
7332;SDS011;3707;43.618;25.342;2023-07-13T03:56:26;0.90;;;0.90;;
7332;SDS011;3707;43.618;25.342;2023-07-13T03:58:53;0.77;;;0.77;;
7332;SDS011;3707;43.618;25.342;2023-07-13T04:01:20;1.15;;;1.15;;
7332;SDS011;3707;43.618;25.342;2023-07-13T04:03:50;0.75;;;0.75;;
7332;SDS011;3707;43.618;25.342;2023-07-13T04:06:17;1.58;;;1.48;;
7332;SDS011;3707;43.618;25.342;2023-07-13T04:08:48;0.82;;;0.82;;
7332;SDS011;3707;43.618;25.342;2023-07-13T04:11:16;0.60;;;0.60;;
7332;SDS011;3707;43.618;25.342;2023-07-13T04:13:44;0.70;;;0.70;;
7332;SDS011;3707;43.618;25.342;2023-07-13T04:16:12;0.68;;;0.68;;
7332;SDS011;3707;43.618;25.342;2023-07-13T04:18:39;0.63;;;0.63;;
7332;SDS011;3707;43.618;25.342;2023-07-13T04:21:06;0.60;;;0.60;;
7332;SDS011;3707;43.618;25.342;2023-07-13T04:23:34;0.80;;;0.80;;
7332;SDS011;3707;43.618;25.342;2023-07-13T04:26:01;0.63;;;0.63;;
7332;SDS011;3707;43.618;25.342;2023-07-13T04:28:27;1.08;;;1.08;;
7332;SDS011;3707;43.618;25.342;2023-07-13T04:30:56;0.60;;;0.60;;
7332;SDS011;3707;43.618;25.342;2023-07-13T04:33:23;0.60;;;0.60;;
7332;SDS011;3707;43.618;25.342;2023-07-13T04:35:50;0.60;;;0.60;;
7332;SDS011;3707;43.618;25.342;2023-07-13T04:38:21;0.60;;;0.60;;
7332;SDS011;3707;43.618;25.342;2023-07-13T04:40:49;4.55;;;1.90;;
7332;SDS011;3707;43.618;25.342;2023-07-13T04:43:16;8.50;;;2.78;;
7332;SDS011;3707;43.618;25.342;2023-07-13T04:45:43;6.22;;;2.15;;
7332;SDS011;3707;43.618;25.342;2023-07-13T04:48:11;5.07;;;2.28;;
7332;SDS011;3707;43.618;25.342;2023-07-13T04:50:38;5.72;;;1.92;;
7332;SDS011;3707;43.618;25.342;2023-07-13T04:53:05;7.07;;;2.28;;
7332;SDS011;3707;43.618;25.342;2023-07-13T04:55:32;4.90;;;1.67;;
7332;SDS011;3707;43.618;25.342;2023-07-13T04:57:59;5.00;;;2.08;;
7332;SDS011;3707;43.618;25.342;2023-07-13T05:00:28;6.35;;;2.00;;
7332;SDS011;3707;43.618;25.342;2023-07-13T05:02:55;6.45;;;2.03;;
7332;SDS011;3707;43.618;25.342;2023-07-13T05:05:25;6.90;;;1.92;;
7332;SDS011;3707;43.618;25.342;2023-07-13T05:07:52;4.47;;;2.00;;
7332;SDS011;3707;43.618;25.342;2023-07-13T05:10:19;3.80;;;1.77;;
7332;SDS011;3707;43.618;25.342;2023-07-13T05:12:46;5.63;;;2.05;;
7332;SDS011;3707;43.618;25.342;2023-07-13T05:15:13;8.32;;;2.47;;
7332;SDS011;3707;43.618;25.342;2023-07-13T05:17:40;6.70;;;2.08;;
7332;SDS011;3707;43.618;25.342;2023-07-13T05:20:08;5.60;;;2.10;;
7332;SDS011;3707;43.618;25.342;2023-07-13T05:22:37;20.25;;;2.17;;
7332;SDS011;3707;43.618;25.342;2023-07-13T05:25:04;5.20;;;2.25;;
7332;SDS011;3707;43.618;25.342;2023-07-13T05:27:32;3.17;;;1.48;;
7332;SDS011;3707;43.618;25.342;2023-07-13T05:29:59;4.72;;;1.92;;
7332;SDS011;3707;43.618;25.342;2023-07-13T05:32:26;4.75;;;1.77;;
7332;SDS011;3707;43.618;25.342;2023-07-13T05:34:53;7.25;;;2.25;;
7332;SDS011;3707;43.618;25.342;2023-07-13T05:37:20;9.25;;;2.72;;
7332;SDS011;3707;43.618;25.342;2023-07-13T05:39:48;5.82;;;2.10;;
7332;SDS011;3707;43.618;25.342;2023-07-13T05:42:15;5.32;;;2.13;;
7332;SDS011;3707;43.618;25.342;2023-07-13T05:44:42;4.82;;;1.98;;
7332;SDS011;3707;43.618;25.342;2023-07-13T05:47:09;8.15;;;2.67;;
7332;SDS011;3707;43.618;25.342;2023-07-13T05:49:35;8.07;;;2.38;;
7332;SDS011;3707;43.618;25.342;2023-07-13T05:52:02;5.95;;;1.85;;
7332;SDS011;3707;43.618;25.342;2023-07-13T05:54:29;8.75;;;2.78;;
7332;SDS011;3707;43.618;25.342;2023-07-13T05:56:57;6.15;;;2.13;;
7332;SDS011;3707;43.618;25.342;2023-07-13T05:59:24;7.15;;;2.13;;
7332;SDS011;3707;43.618;25.342;2023-07-13T06:01:51;7.20;;;2.25;;
7332;SDS011;3707;43.618;25.342;2023-07-13T06:04:18;6.80;;;2.05;;
7332;SDS011;3707;43.618;25.342;2023-07-13T06:06:45;7.50;;;2.25;;
7332;SDS011;3707;43.618;25.342;2023-07-13T06:09:12;8.75;;;2.92;;
7332;SDS011;3707;43.618;25.342;2023-07-13T06:11:38;7.05;;;2.33;;
7332;SDS011;3707;43.618;25.342;2023-07-13T06:14:06;6.35;;;1.88;;
7332;SDS011;3707;43.618;25.342;2023-07-13T06:16:33;7.85;;;2.17;;
7332;SDS011;3707;43.618;25.342;2023-07-13T06:19:00;8.63;;;2.83;;
7332;SDS011;3707;43.618;25.342;2023-07-13T06:21:27;10.88;;;2.80;;
7332;SDS011;3707;43.618;25.342;2023-07-13T06:23:54;5.93;;;1.83;;
7332;SDS011;3707;43.618;25.342;2023-07-13T06:26:20;9.00;;;2.42;;
7332;SDS011;3707;43.618;25.342;2023-07-13T06:28:47;5.88;;;1.85;;
7332;SDS011;3707;43.618;25.342;2023-07-13T06:31:16;6.57;;;2.17;;
7332;SDS011;3707;43.618;25.342;2023-07-13T06:33:43;6.28;;;2.15;;
7332;SDS011;3707;43.618;25.342;2023-07-13T06:36:10;7.13;;;2.10;;
7332;SDS011;3707;43.618;25.342;2023-07-13T06:38:37;13.68;;;2.85;;
7332;SDS011;3707;43.618;25.342;2023-07-13T06:41:05;8.23;;;2.40;;
7332;SDS011;3707;43.618;25.342;2023-07-13T06:43:33;13.43;;;3.78;;
7332;SDS011;3707;43.618;25.342;2023-07-13T06:45:59;8.23;;;2.30;;
7332;SDS011;3707;43.618;25.342;2023-07-13T06:48:27;9.00;;;2.42;;
7332;SDS011;3707;43.618;25.342;2023-07-13T06:50:54;8.13;;;2.15;;
7332;SDS011;3707;43.618;25.342;2023-07-13T06:53:22;9.52;;;2.83;;
7332;SDS011;3707;43.618;25.342;2023-07-13T06:55:48;4.95;;;1.92;;
7332;SDS011;3707;43.618;25.342;2023-07-13T06:58:17;4.40;;;2.03;;
7332;SDS011;3707;43.618;25.342;2023-07-13T07:00:44;4.43;;;1.90;;
7332;SDS011;3707;43.618;25.342;2023-07-13T07:03:11;5.30;;;2.00;;
7332;SDS011;3707;43.618;25.342;2023-07-13T07:05:40;7.18;;;2.30;;
7332;SDS011;3707;43.618;25.342;2023-07-13T07:08:07;5.72;;;2.08;;
7332;SDS011;3707;43.618;25.342;2023-07-13T07:10:34;5.78;;;2.03;;
7332;SDS011;3707;43.618;25.342;2023-07-13T07:13:01;6.13;;;1.90;;
7332;SDS011;3707;43.618;25.342;2023-07-13T07:15:28;8.27;;;2.47;;
7332;SDS011;3707;43.618;25.342;2023-07-13T07:17:55;4.63;;;1.75;;
7332;SDS011;3707;43.618;25.342;2023-07-13T07:20:22;6.28;;;2.20;;
7332;SDS011;3707;43.618;25.342;2023-07-13T07:22:51;10.50;;;2.00;;
7332;SDS011;3707;43.618;25.342;2023-07-13T07:25:18;4.45;;;1.92;;
7332;SDS011;3707;43.618;25.342;2023-07-13T07:27:45;6.10;;;2.13;;
7332;SDS011;3707;43.618;25.342;2023-07-13T07:30:12;6.15;;;2.05;;
7332;SDS011;3707;43.618;25.342;2023-07-13T07:32:40;6.88;;;2.50;;
7332;SDS011;3707;43.618;25.342;2023-07-13T07:35:08;5.75;;;2.05;;
7332;SDS011;3707;43.618;25.342;2023-07-13T07:37:35;6.63;;;2.25;;
7332;SDS011;3707;43.618;25.342;2023-07-13T07:40:03;5.75;;;2.60;;
7332;SDS011;3707;43.618;25.342;2023-07-13T07:42:31;8.52;;;3.33;;
7332;SDS011;3707;43.618;25.342;2023-07-13T07:44:58;7.97;;;2.70;;
7332;SDS011;3707;43.618;25.342;2023-07-13T07:47:25;6.63;;;2.20;;
7332;SDS011;3707;43.618;25.342;2023-07-13T07:49:52;7.68;;;2.25;;
7332;SDS011;3707;43.618;25.342;2023-07-13T07:52:19;7.28;;;2.28;;
7332;SDS011;3707;43.618;25.342;2023-07-13T07:54:46;8.05;;;2.42;;
7332;SDS011;3707;43.618;25.342;2023-07-13T07:57:14;10.65;;;2.67;;
7332;SDS011;3707;43.618;25.342;2023-07-13T07:59:41;7.90;;;2.40;;
7332;SDS011;3707;43.618;25.342;2023-07-13T08:02:08;10.30;;;2.72;;
7332;SDS011;3707;43.618;25.342;2023-07-13T08:04:36;8.23;;;2.30;;
7332;SDS011;3707;43.618;25.342;2023-07-13T08:07:03;5.50;;;2.08;;
7332;SDS011;3707;43.618;25.342;2023-07-13T08:09:30;6.20;;;2.15;;
7332;SDS011;3707;43.618;25.342;2023-07-13T08:11:57;6.18;;;2.40;;
7332;SDS011;3707;43.618;25.342;2023-07-13T08:14:25;6.40;;;2.38;;
7332;SDS011;3707;43.618;25.342;2023-07-13T08:16:52;5.78;;;2.10;;
7332;SDS011;3707;43.618;25.342;2023-07-13T08:19:19;7.85;;;2.53;;
7332;SDS011;3707;43.618;25.342;2023-07-13T08:21:46;6.22;;;2.50;;
7332;SDS011;3707;43.618;25.342;2023-07-13T08:24:14;6.65;;;2.17;;
7332;SDS011;3707;43.618;25.342;2023-07-13T08:26:43;6.90;;;2.28;;
7332;SDS011;3707;43.618;25.342;2023-07-13T08:29:10;6.65;;;2.53;;
7332;SDS011;3707;43.618;25.342;2023-07-13T08:31:38;6.85;;;2.17;;
7332;SDS011;3707;43.618;25.342;2023-07-13T08:34:05;6.15;;;2.13;;
7332;SDS011;3707;43.618;25.342;2023-07-13T08:36:32;10.15;;;3.08;;
7332;SDS011;3707;43.618;25.342;2023-07-13T08:38:58;5.15;;;1.95;;
7332;SDS011;3707;43.618;25.342;2023-07-13T08:41:25;6.50;;;2.10;;
7332;SDS011;3707;43.618;25.342;2023-07-13T08:43:56;7.15;;;2.25;;
7332;SDS011;3707;43.618;25.342;2023-07-13T08:46:26;7.35;;;2.20;;
7332;SDS011;3707;43.618;25.342;2023-07-13T08:49:02;5.28;;;1.83;;
7332;SDS011;3707;43.618;25.342;2023-07-13T08:51:33;6.22;;;2.17;;
7332;SDS011;3707;43.618;25.342;2023-07-13T08:54:08;4.82;;;1.77;;
7332;SDS011;3707;43.618;25.342;2023-07-13T08:56:43;7.75;;;2.33;;
7332;SDS011;3707;43.618;25.342;2023-07-13T08:59:13;5.95;;;2.53;;
7332;SDS011;3707;43.618;25.342;2023-07-13T09:01:48;7.60;;;2.20;;
7332;SDS011;3707;43.618;25.342;2023-07-13T09:04:45;7.88;;;2.42;;
7332;SDS011;3707;43.618;25.342;2023-07-13T09:07:19;7.80;;;2.50;;
7332;SDS011;3707;43.618;25.342;2023-07-13T09:09:58;7.45;;;2.45;;
7332;SDS011;3707;43.618;25.342;2023-07-13T09:12:35;6.10;;;2.25;;
7332;SDS011;3707;43.618;25.342;2023-07-13T09:15:17;7.13;;;2.22;;
7332;SDS011;3707;43.618;25.342;2023-07-13T09:17:50;8.05;;;2.40;;
7332;SDS011;3707;43.618;25.342;2023-07-13T09:20:23;7.85;;;2.35;;
7332;SDS011;3707;43.618;25.342;2023-07-13T09:22:55;6.80;;;2.33;;
7332;SDS011;3707;43.618;25.342;2023-07-13T09:25:27;7.03;;;2.53;;
7332;SDS011;3707;43.618;25.342;2023-07-13T09:27:58;7.75;;;2.47;;
7332;SDS011;3707;43.618;25.342;2023-07-13T09:30:34;5.32;;;2.00;;
7332;SDS011;3707;43.618;25.342;2023-07-13T09:33:05;6.75;;;2.22;;
7332;SDS011;3707;43.618;25.342;2023-07-13T09:35:34;5.72;;;1.90;;
7332;SDS011;3707;43.618;25.342;2023-07-13T09:38:03;7.50;;;2.38;;
7332;SDS011;3707;43.618;25.342;2023-07-13T09:40:40;6.28;;;2.10;;
7332;SDS011;3707;43.618;25.342;2023-07-13T09:43:14;8.50;;;2.92;;
7332;SDS011;3707;43.618;25.342;2023-07-13T09:45:44;5.88;;;2.08;;
7332;SDS011;3707;43.618;25.342;2023-07-13T09:48:13;7.80;;;2.25;;
7332;SDS011;3707;43.618;25.342;2023-07-13T09:50:42;6.70;;;2.13;;
7332;SDS011;3707;43.618;25.342;2023-07-13T09:53:13;8.07;;;2.50;;
7332;SDS011;3707;43.618;25.342;2023-07-13T09:55:42;5.80;;;2.03;;
7332;SDS011;3707;43.618;25.342;2023-07-13T09:58:10;6.57;;;2.42;;
7332;SDS011;3707;43.618;25.342;2023-07-13T10:00:39;5.78;;;1.92;;
7332;SDS011;3707;43.618;25.342;2023-07-13T10:03:16;5.90;;;2.00;;
7332;SDS011;3707;43.618;25.342;2023-07-13T10:05:47;6.95;;;2.17;;
7332;SDS011;3707;43.618;25.342;2023-07-13T10:08:20;6.72;;;2.13;;
7332;SDS011;3707;43.618;25.342;2023-07-13T10:10:54;7.90;;;2.50;;
7332;SDS011;3707;43.618;25.342;2023-07-13T10:13:29;7.70;;;2.30;;
7332;SDS011;3707;43.618;25.342;2023-07-13T10:16:00;8.07;;;2.60;;
7332;SDS011;3707;43.618;25.342;2023-07-13T10:18:28;7.53;;;2.38;;
7332;SDS011;3707;43.618;25.342;2023-07-13T10:21:00;6.47;;;2.35;;
7332;SDS011;3707;43.618;25.342;2023-07-13T10:23:37;5.97;;;2.47;;
7332;SDS011;3707;43.618;25.342;2023-07-13T10:26:04;7.60;;;2.38;;
7332;SDS011;3707;43.618;25.342;2023-07-13T10:28:38;5.65;;;2.03;;
7332;SDS011;3707;43.618;25.342;2023-07-13T10:31:10;7.05;;;2.30;;
7332;SDS011;3707;43.618;25.342;2023-07-13T10:33:40;6.70;;;2.25;;
7332;SDS011;3707;43.618;25.342;2023-07-13T10:36:11;6.90;;;2.22;;
7332;SDS011;3707;43.618;25.342;2023-07-13T10:38:43;8.25;;;2.33;;
7332;SDS011;3707;43.618;25.342;2023-07-13T10:41:14;7.55;;;2.42;;
7332;SDS011;3707;43.618;25.342;2023-07-13T10:43:44;6.43;;;2.42;;
7332;SDS011;3707;43.618;25.342;2023-07-13T10:46:15;6.68;;;2.13;;
7332;SDS011;3707;43.618;25.342;2023-07-13T10:48:44;6.53;;;2.15;;
7332;SDS011;3707;43.618;25.342;2023-07-13T10:51:17;7.13;;;2.10;;
7332;SDS011;3707;43.618;25.342;2023-07-13T10:53:47;6.38;;;2.10;;
7332;SDS011;3707;43.618;25.342;2023-07-13T10:56:34;7.70;;;2.40;;
7332;SDS011;3707;43.618;25.342;2023-07-13T10:59:02;9.60;;;2.70;;
7332;SDS011;3707;43.618;25.342;2023-07-13T11:01:40;7.03;;;2.28;;
7332;SDS011;3707;43.618;25.342;2023-07-13T11:04:14;8.23;;;2.45;;
7332;SDS011;3707;43.618;25.342;2023-07-13T11:06:43;8.75;;;2.50;;
7332;SDS011;3707;43.618;25.342;2023-07-13T11:09:18;8.40;;;2.45;;
7332;SDS011;3707;43.618;25.342;2023-07-13T11:11:58;6.15;;;2.15;;
7332;SDS011;3707;43.618;25.342;2023-07-13T11:14:28;9.18;;;2.83;;
7332;SDS011;3707;43.618;25.342;2023-07-13T11:16:57;6.00;;;2.13;;
7332;SDS011;3707;43.618;25.342;2023-07-13T11:19:36;6.22;;;2.05;;
7332;SDS011;3707;43.618;25.342;2023-07-13T11:22:15;7.25;;;2.35;;
7332;SDS011;3707;43.618;25.342;2023-07-13T11:24:48;8.43;;;2.35;;
7332;SDS011;3707;43.618;25.342;2023-07-13T11:27:21;8.25;;;2.33;;
7332;SDS011;3707;43.618;25.342;2023-07-13T11:30:08;6.22;;;2.08;;
7332;SDS011;3707;43.618;25.342;2023-07-13T11:32:49;7.28;;;2.15;;
7332;SDS011;3707;43.618;25.342;2023-07-13T11:35:21;7.40;;;2.28;;
7332;SDS011;3707;43.618;25.342;2023-07-13T11:37:50;7.57;;;2.30;;
7332;SDS011;3707;43.618;25.342;2023-07-13T11:40:18;7.38;;;2.33;;
7332;SDS011;3707;43.618;25.342;2023-07-13T11:42:48;6.68;;;2.30;;
7332;SDS011;3707;43.618;25.342;2023-07-13T11:45:21;6.38;;;2.05;;
7332;SDS011;3707;43.618;25.342;2023-07-13T11:47:48;5.93;;;1.98;;
7332;SDS011;3707;43.618;25.342;2023-07-13T11:50:19;8.38;;;2.70;;
7332;SDS011;3707;43.618;25.342;2023-07-13T11:52:47;7.10;;;2.42;;
7332;SDS011;3707;43.618;25.342;2023-07-13T11:55:17;8.25;;;2.35;;
7332;SDS011;3707;43.618;25.342;2023-07-13T11:57:47;7.53;;;2.33;;
7332;SDS011;3707;43.618;25.342;2023-07-13T12:00:18;3.08;;;1.33;;
7332;SDS011;3707;43.618;25.342;2023-07-13T12:02:49;11.13;;;2.30;;
7332;SDS011;3707;43.618;25.342;2023-07-13T12:05:19;7.78;;;2.40;;
7332;SDS011;3707;43.618;25.342;2023-07-13T12:07:47;5.05;;;2.00;;
7332;SDS011;3707;43.618;25.342;2023-07-13T12:10:18;7.70;;;2.53;;
7332;SDS011;3707;43.618;25.342;2023-07-13T12:12:51;6.03;;;2.05;;
7332;SDS011;3707;43.618;25.342;2023-07-13T12:15:19;5.53;;;2.20;;
7332;SDS011;3707;43.618;25.342;2023-07-13T12:17:48;5.57;;;1.98;;
7332;SDS011;3707;43.618;25.342;2023-07-13T12:20:20;6.53;;;2.15;;
7332;SDS011;3707;43.618;25.342;2023-07-13T12:22:50;6.00;;;2.25;;
7332;SDS011;3707;43.618;25.342;2023-07-13T12:25:19;6.07;;;2.10;;
7332;SDS011;3707;43.618;25.342;2023-07-13T12:27:47;7.35;;;2.45;;
7332;SDS011;3707;43.618;25.342;2023-07-13T12:30:25;2.33;;;1.33;;
7332;SDS011;3707;43.618;25.342;2023-07-13T12:32:56;5.03;;;1.88;;
7332;SDS011;3707;43.618;25.342;2023-07-13T12:35:26;6.57;;;2.28;;
7332;SDS011;3707;43.618;25.342;2023-07-13T12:37:58;6.75;;;2.30;;
7332;SDS011;3707;43.618;25.342;2023-07-13T12:40:28;4.45;;;1.85;;
7332;SDS011;3707;43.618;25.342;2023-07-13T12:43:00;5.90;;;2.10;;
7332;SDS011;3707;43.618;25.342;2023-07-13T12:45:29;5.40;;;2.05;;
7332;SDS011;3707;43.618;25.342;2023-07-13T12:47:57;6.53;;;2.20;;
7332;SDS011;3707;43.618;25.342;2023-07-13T12:50:28;7.00;;;2.95;;
7332;SDS011;3707;43.618;25.342;2023-07-13T12:53:01;6.75;;;2.20;;
7332;SDS011;3707;43.618;25.342;2023-07-13T12:55:39;7.15;;;2.28;;
7332;SDS011;3707;43.618;25.342;2023-07-13T12:58:09;5.53;;;1.98;;
7332;SDS011;3707;43.618;25.342;2023-07-13T13:00:48;5.63;;;2.08;;
7332;SDS011;3707;43.618;25.342;2023-07-13T13:03:21;4.95;;;1.92;;
7332;SDS011;3707;43.618;25.342;2023-07-13T13:05:56;7.10;;;2.42;;
7332;SDS011;3707;43.618;25.342;2023-07-13T13:08:24;8.10;;;2.47;;
7332;SDS011;3707;43.618;25.342;2023-07-13T13:10:53;7.43;;;2.47;;
7332;SDS011;3707;43.618;25.342;2023-07-13T13:13:19;6.07;;;2.10;;
7332;SDS011;3707;43.618;25.342;2023-07-13T13:15:46;5.43;;;2.03;;
7332;SDS011;3707;43.618;25.342;2023-07-13T13:18:15;4.78;;;1.85;;
7332;SDS011;3707;43.618;25.342;2023-07-13T13:20:43;6.28;;;2.53;;
7332;SDS011;3707;43.618;25.342;2023-07-13T13:23:11;5.93;;;2.20;;
7332;SDS011;3707;43.618;25.342;2023-07-13T13:25:39;6.57;;;2.22;;
7332;SDS011;3707;43.618;25.342;2023-07-13T13:28:10;7.78;;;3.45;;
7332;SDS011;3707;43.618;25.342;2023-07-13T13:30:41;3.55;;;1.50;;
7332;SDS011;3707;43.618;25.342;2023-07-13T13:33:09;8.38;;;2.50;;
7332;SDS011;3707;43.618;25.342;2023-07-13T13:35:37;5.60;;;1.98;;
7332;SDS011;3707;43.618;25.342;2023-07-13T13:38:08;8.52;;;2.60;;
7332;SDS011;3707;43.618;25.342;2023-07-13T13:40:37;7.10;;;2.20;;
7332;SDS011;3707;43.618;25.342;2023-07-13T13:43:07;5.30;;;2.25;;
7332;SDS011;3707;43.618;25.342;2023-07-13T13:45:42;5.88;;;2.08;;
7332;SDS011;3707;43.618;25.342;2023-07-13T13:48:12;6.45;;;2.17;;
7332;SDS011;3707;43.618;25.342;2023-07-13T13:50:41;5.88;;;2.50;;
7332;SDS011;3707;43.618;25.342;2023-07-13T13:53:09;8.50;;;2.60;;
7332;SDS011;3707;43.618;25.342;2023-07-13T13:55:37;6.30;;;2.13;;
7332;SDS011;3707;43.618;25.342;2023-07-13T13:58:03;7.15;;;2.33;;
7332;SDS011;3707;43.618;25.342;2023-07-13T14:00:32;7.00;;;2.20;;
7332;SDS011;3707;43.618;25.342;2023-07-13T14:02:59;7.30;;;2.45;;
7332;SDS011;3707;43.618;25.342;2023-07-13T14:05:26;6.90;;;2.40;;
7332;SDS011;3707;43.618;25.342;2023-07-13T14:07:54;7.55;;;2.50;;
7332;SDS011;3707;43.618;25.342;2023-07-13T14:10:21;6.18;;;2.45;;
7332;SDS011;3707;43.618;25.342;2023-07-13T14:12:50;4.40;;;1.92;;
7332;SDS011;3707;43.618;25.342;2023-07-13T14:15:20;6.43;;;2.35;;
7332;SDS011;3707;43.618;25.342;2023-07-13T14:17:50;6.22;;;2.13;;
7332;SDS011;3707;43.618;25.342;2023-07-13T14:20:17;6.70;;;2.25;;
7332;SDS011;3707;43.618;25.342;2023-07-13T14:22:45;6.07;;;2.28;;
7332;SDS011;3707;43.618;25.342;2023-07-13T14:25:14;5.40;;;2.03;;
7332;SDS011;3707;43.618;25.342;2023-07-13T14:27:42;4.97;;;2.13;;
7332;SDS011;3707;43.618;25.342;2023-07-13T14:30:12;4.18;;;1.88;;
7332;SDS011;3707;43.618;25.342;2023-07-13T14:32:40;5.40;;;2.03;;
7332;SDS011;3707;43.618;25.342;2023-07-13T14:35:10;5.00;;;2.08;;
7332;SDS011;3707;43.618;25.342;2023-07-13T14:37:37;4.60;;;2.22;;
7332;SDS011;3707;43.618;25.342;2023-07-13T14:40:08;4.78;;;2.05;;
7332;SDS011;3707;43.618;25.342;2023-07-13T14:42:39;6.55;;;2.38;;
7332;SDS011;3707;43.618;25.342;2023-07-13T14:45:09;6.95;;;2.83;;
7332;SDS011;3707;43.618;25.342;2023-07-13T14:47:40;5.20;;;2.05;;
7332;SDS011;3707;43.618;25.342;2023-07-13T14:52:42;5.50;;;2.30;;
7332;SDS011;3707;43.618;25.342;2023-07-13T14:55:10;4.80;;;2.15;;
7332;SDS011;3707;43.618;25.342;2023-07-13T14:57:37;6.35;;;2.47;;
7332;SDS011;3707;43.618;25.342;2023-07-13T15:00:05;7.00;;;2.63;;
7332;SDS011;3707;43.618;25.342;2023-07-13T15:02:38;5.57;;;2.25;;
7332;SDS011;3707;43.618;25.342;2023-07-13T15:05:09;5.07;;;2.15;;
7332;SDS011;3707;43.618;25.342;2023-07-13T15:07:41;7.35;;;2.67;;
7332;SDS011;3707;43.618;25.342;2023-07-13T15:10:15;4.88;;;2.08;;
7332;SDS011;3707;43.618;25.342;2023-07-13T15:12:43;5.03;;;2.00;;